sensor_id;sensor_type;location;lat;lon;timestamp;P1;durP1;ratioP1;P2;durP2;ratioP2
20729;SDS011;10526;50.850;12.928;2023-05-07T00:02:53;23.13;;;8.82;;
20729;SDS011;10526;50.850;12.928;2023-05-07T00:07:16;19.25;;;7.45;;
20729;SDS011;10526;50.850;12.928;2023-05-07T00:11:38;21.35;;;8.77;;
20729;SDS011;10526;50.850;12.928;2023-05-07T00:16:01;15.98;;;5.90;;
20729;SDS011;10526;50.850;12.928;2023-05-07T00:20:24;16.08;;;6.68;;
20729;SDS011;10526;50.850;12.928;2023-05-07T00:24:47;16.17;;;6.43;;
20729;SDS011;10526;50.850;12.928;2023-05-07T00:29:09;18.88;;;7.63;;
20729;SDS011;10526;50.850;12.928;2023-05-07T00:33:31;16.40;;;6.65;;
20729;SDS011;10526;50.850;12.928;2023-05-07T00:37:53;17.95;;;6.90;;
20729;SDS011;10526;50.850;12.928;2023-05-07T00:42:15;17.52;;;7.15;;
20729;SDS011;10526;50.850;12.928;2023-05-07T00:46:39;13.90;;;5.90;;
20729;SDS011;10526;50.850;12.928;2023-05-07T00:51:02;19.23;;;8.10;;
20729;SDS011;10526;50.850;12.928;2023-05-07T00:55:26;20.08;;;8.80;;
20729;SDS011;10526;50.850;12.928;2023-05-07T00:59:48;20.20;;;9.77;;
20729;SDS011;10526;50.850;12.928;2023-05-07T01:04:11;25.77;;;9.20;;
20729;SDS011;10526;50.850;12.928;2023-05-07T01:08:34;20.05;;;8.80;;
20729;SDS011;10526;50.850;12.928;2023-05-07T01:12:58;19.98;;;9.55;;
20729;SDS011;10526;50.850;12.928;2023-05-07T01:17:22;22.45;;;9.27;;
20729;SDS011;10526;50.850;12.928;2023-05-07T01:21:46;23.40;;;10.05;;
20729;SDS011;10526;50.850;12.928;2023-05-07T01:26:12;20.38;;;8.63;;
20729;SDS011;10526;50.850;12.928;2023-05-07T01:30:37;18.27;;;7.90;;
20729;SDS011;10526;50.850;12.928;2023-05-07T01:35:03;19.38;;;9.13;;
20729;SDS011;10526;50.850;12.928;2023-05-07T01:39:28;22.83;;;9.57;;
20729;SDS011;10526;50.850;12.928;2023-05-07T01:43:52;26.65;;;10.45;;
20729;SDS011;10526;50.850;12.928;2023-05-07T01:48:16;22.35;;;10.18;;
20729;SDS011;10526;50.850;12.928;2023-05-07T01:52:39;21.33;;;9.85;;
20729;SDS011;10526;50.850;12.928;2023-05-07T01:57:01;27.67;;;11.05;;
20729;SDS011;10526;50.850;12.928;2023-05-07T02:01:23;23.08;;;9.38;;
20729;SDS011;10526;50.850;12.928;2023-05-07T02:05:46;24.38;;;11.20;;
20729;SDS011;10526;50.850;12.928;2023-05-07T02:10:31;29.33;;;12.68;;
20729;SDS011;10526;50.850;12.928;2023-05-07T02:14:53;24.08;;;10.77;;
20729;SDS011;10526;50.850;12.928;2023-05-07T02:19:16;30.73;;;12.30;;
20729;SDS011;10526;50.850;12.928;2023-05-07T02:23:39;31.42;;;13.40;;
20729;SDS011;10526;50.850;12.928;2023-05-07T02:28:01;30.15;;;12.63;;
20729;SDS011;10526;50.850;12.928;2023-05-07T02:32:33;32.67;;;12.82;;
20729;SDS011;10526;50.850;12.928;2023-05-07T02:36:56;29.35;;;12.60;;
20729;SDS011;10526;50.850;12.928;2023-05-07T02:41:20;31.35;;;13.25;;
20729;SDS011;10526;50.850;12.928;2023-05-07T02:45:42;31.90;;;14.07;;
20729;SDS011;10526;50.850;12.928;2023-05-07T02:50:05;33.10;;;12.52;;
20729;SDS011;10526;50.850;12.928;2023-05-07T02:54:29;33.30;;;13.75;;
20729;SDS011;10526;50.850;12.928;2023-05-07T02:58:52;33.08;;;14.18;;
20729;SDS011;10526;50.850;12.928;2023-05-07T03:03:17;31.70;;;12.43;;
20729;SDS011;10526;50.850;12.928;2023-05-07T03:07:39;26.52;;;11.98;;
20729;SDS011;10526;50.850;12.928;2023-05-07T03:12:06;33.15;;;13.13;;
20729;SDS011;10526;50.850;12.928;2023-05-07T03:16:28;28.27;;;13.98;;
20729;SDS011;10526;50.850;12.928;2023-05-07T03:20:51;32.53;;;12.45;;
20729;SDS011;10526;50.850;12.928;2023-05-07T03:25:13;30.38;;;12.05;;
20729;SDS011;10526;50.850;12.928;2023-05-07T03:29:36;25.50;;;12.23;;
20729;SDS011;10526;50.850;12.928;2023-05-07T03:33:58;28.05;;;11.52;;
20729;SDS011;10526;50.850;12.928;2023-05-07T03:38:20;34.47;;;11.98;;
20729;SDS011;10526;50.850;12.928;2023-05-07T03:42:43;28.98;;;11.05;;
20729;SDS011;10526;50.850;12.928;2023-05-07T03:47:07;26.38;;;10.63;;
20729;SDS011;10526;50.850;12.928;2023-05-07T03:51:29;22.27;;;9.70;;
20729;SDS011;10526;50.850;12.928;2023-05-07T03:55:53;27.90;;;11.52;;
20729;SDS011;10526;50.850;12.928;2023-05-07T04:00:15;34.92;;;16.65;;
20729;SDS011;10526;50.850;12.928;2023-05-07T04:04:41;25.33;;;10.32;;
20729;SDS011;10526;50.850;12.928;2023-05-07T04:09:03;22.25;;;9.57;;
20729;SDS011;10526;50.850;12.928;2023-05-07T04:13:25;25.02;;;9.95;;
20729;SDS011;10526;50.850;12.928;2023-05-07T04:17:49;23.80;;;9.70;;
20729;SDS011;10526;50.850;12.928;2023-05-07T04:22:14;26.45;;;11.02;;
20729;SDS011;10526;50.850;12.928;2023-05-07T04:26:37;20.65;;;9.50;;
20729;SDS011;10526;50.850;12.928;2023-05-07T04:30:59;21.52;;;10.27;;
20729;SDS011;10526;50.850;12.928;2023-05-07T04:35:23;20.35;;;10.25;;
20729;SDS011;10526;50.850;12.928;2023-05-07T04:39:45;23.63;;;10.65;;
20729;SDS011;10526;50.850;12.928;2023-05-07T04:44:08;24.35;;;10.68;;
20729;SDS011;10526;50.850;12.928;2023-05-07T04:48:31;33.35;;;13.43;;
20729;SDS011;10526;50.850;12.928;2023-05-07T04:52:54;25.15;;;11.13;;
20729;SDS011;10526;50.850;12.928;2023-05-07T04:57:17;28.92;;;11.43;;
20729;SDS011;10526;50.850;12.928;2023-05-07T05:01:40;30.20;;;13.07;;
20729;SDS011;10526;50.850;12.928;2023-05-07T05:06:02;27.85;;;13.18;;
20729;SDS011;10526;50.850;12.928;2023-05-07T05:10:27;29.60;;;12.48;;
20729;SDS011;10526;50.850;12.928;2023-05-07T05:14:50;27.65;;;12.50;;
20729;SDS011;10526;50.850;12.928;2023-05-07T05:19:13;28.98;;;11.98;;
20729;SDS011;10526;50.850;12.928;2023-05-07T05:23:37;36.65;;;14.98;;
20729;SDS011;10526;50.850;12.928;2023-05-07T05:28:00;30.13;;;13.75;;
20729;SDS011;10526;50.850;12.928;2023-05-07T05:32:23;28.50;;;12.82;;
20729;SDS011;10526;50.850;12.928;2023-05-07T05:36:49;31.75;;;14.55;;
20729;SDS011;10526;50.850;12.928;2023-05-07T05:41:12;35.38;;;15.88;;
20729;SDS011;10526;50.850;12.928;2023-05-07T05:45:34;27.45;;;13.38;;
20729;SDS011;10526;50.850;12.928;2023-05-07T05:49:56;31.60;;;14.73;;
20729;SDS011;10526;50.850;12.928;2023-05-07T05:54:19;31.60;;;13.20;;
20729;SDS011;10526;50.850;12.928;2023-05-07T05:58:42;31.08;;;14.18;;
20729;SDS011;10526;50.850;12.928;2023-05-07T06:03:04;25.50;;;12.43;;
20729;SDS011;10526;50.850;12.928;2023-05-07T06:07:27;25.55;;;12.13;;
20729;SDS011;10526;50.850;12.928;2023-05-07T06:11:50;28.13;;;12.52;;
20729;SDS011;10526;50.850;12.928;2023-05-07T06:16:13;28.85;;;13.07;;
20729;SDS011;10526;50.850;12.928;2023-05-07T06:20:37;25.55;;;10.85;;
20729;SDS011;10526;50.850;12.928;2023-05-07T06:25:04;24.63;;;11.85;;
20729;SDS011;10526;50.850;12.928;2023-05-07T06:29:28;25.88;;;12.10;;
20729;SDS011;10526;50.850;12.928;2023-05-07T06:33:55;24.27;;;10.35;;
20729;SDS011;10526;50.850;12.928;2023-05-07T06:38:24;28.95;;;11.23;;
20729;SDS011;10526;50.850;12.928;2023-05-07T06:42:46;22.60;;;9.35;;
20729;SDS011;10526;50.850;12.928;2023-05-07T06:47:19;21.50;;;9.48;;
20729;SDS011;10526;50.850;12.928;2023-05-07T06:51:45;21.52;;;9.88;;
20729;SDS011;10526;50.850;12.928;2023-05-07T06:56:08;23.23;;;11.02;;
20729;SDS011;10526;50.850;12.928;2023-05-07T07:00:32;25.38;;;10.27;;
20729;SDS011;10526;50.850;12.928;2023-05-07T07:04:54;21.58;;;9.80;;
20729;SDS011;10526;50.850;12.928;2023-05-07T07:09:16;22.02;;;9.88;;
20729;SDS011;10526;50.850;12.928;2023-05-07T07:13:38;21.88;;;9.43;;
20729;SDS011;10526;50.850;12.928;2023-05-07T07:18:01;20.20;;;9.95;;
20729;SDS011;10526;50.850;12.928;2023-05-07T07:22:24;22.02;;;10.40;;
20729;SDS011;10526;50.850;12.928;2023-05-07T07:26:46;24.08;;;9.82;;
20729;SDS011;10526;50.850;12.928;2023-05-07T07:31:09;18.73;;;8.45;;
20729;SDS011;10526;50.850;12.928;2023-05-07T07:35:33;21.27;;;8.77;;
20729;SDS011;10526;50.850;12.928;2023-05-07T07:39:56;19.80;;;7.97;;
20729;SDS011;10526;50.850;12.928;2023-05-07T07:44:19;15.77;;;7.47;;
20729;SDS011;10526;50.850;12.928;2023-05-07T07:48:46;16.23;;;6.63;;
20729;SDS011;10526;50.850;12.928;2023-05-07T07:53:09;18.42;;;6.88;;
20729;SDS011;10526;50.850;12.928;2023-05-07T07:57:32;18.10;;;7.63;;
20729;SDS011;10526;50.850;12.928;2023-05-07T08:01:54;17.58;;;7.15;;
20729;SDS011;10526;50.850;12.928;2023-05-07T08:06:20;16.10;;;6.95;;
20729;SDS011;10526;50.850;12.928;2023-05-07T08:10:42;13.85;;;5.97;;
20729;SDS011;10526;50.850;12.928;2023-05-07T08:15:14;30.38;;;6.38;;
20729;SDS011;10526;50.850;12.928;2023-05-07T08:19:36;14.70;;;5.00;;
20729;SDS011;10526;50.850;12.928;2023-05-07T08:24:01;12.05;;;4.80;;
20729;SDS011;10526;50.850;12.928;2023-05-07T08:28:23;12.40;;;5.30;;
20729;SDS011;10526;50.850;12.928;2023-05-07T08:32:46;9.60;;;3.88;;
20729;SDS011;10526;50.850;12.928;2023-05-07T08:37:09;11.95;;;4.43;;
20729;SDS011;10526;50.850;12.928;2023-05-07T08:41:31;9.85;;;3.80;;
20729;SDS011;10526;50.850;12.928;2023-05-07T08:45:54;8.30;;;3.80;;
20729;SDS011;10526;50.850;12.928;2023-05-07T08:50:21;7.72;;;3.35;;
20729;SDS011;10526;50.850;12.928;2023-05-07T08:54:44;8.10;;;3.47;;
20729;SDS011;10526;50.850;12.928;2023-05-07T08:59:07;13.65;;;5.05;;
20729;SDS011;10526;50.850;12.928;2023-05-07T09:03:30;10.23;;;4.38;;
20729;SDS011;10526;50.850;12.928;2023-05-07T09:07:53;10.07;;;4.15;;
20729;SDS011;10526;50.850;12.928;2023-05-07T09:12:19;11.52;;;5.18;;
20729;SDS011;10526;50.850;12.928;2023-05-07T09:16:42;11.45;;;4.97;;
20729;SDS011;10526;50.850;12.928;2023-05-07T09:21:05;13.15;;;4.88;;
20729;SDS011;10526;50.850;12.928;2023-05-07T09:25:31;10.98;;;4.68;;
20729;SDS011;10526;50.850;12.928;2023-05-07T09:30:04;10.35;;;4.00;;
20729;SDS011;10526;50.850;12.928;2023-05-07T09:34:31;11.52;;;4.90;;
20729;SDS011;10526;50.850;12.928;2023-05-07T09:38:54;10.57;;;4.32;;
20729;SDS011;10526;50.850;12.928;2023-05-07T09:43:18;12.38;;;4.38;;
20729;SDS011;10526;50.850;12.928;2023-05-07T09:47:47;11.45;;;4.35;;
20729;SDS011;10526;50.850;12.928;2023-05-07T09:52:13;16.40;;;4.47;;
20729;SDS011;10526;50.850;12.928;2023-05-07T09:56:41;9.43;;;4.68;;
20729;SDS011;10526;50.850;12.928;2023-05-07T10:01:10;8.65;;;4.30;;
20729;SDS011;10526;50.850;12.928;2023-05-07T10:05:36;18.00;;;4.00;;
20729;SDS011;10526;50.850;12.928;2023-05-07T10:10:00;7.95;;;3.13;;
20729;SDS011;10526;50.850;12.928;2023-05-07T10:14:28;23.20;;;10.30;;
20729;SDS011;10526;50.850;12.928;2023-05-07T10:18:51;5.80;;;3.05;;
20729;SDS011;10526;50.850;12.928;2023-05-07T10:23:19;6.80;;;3.20;;
20729;SDS011;10526;50.850;12.928;2023-05-07T10:27:50;10.63;;;4.28;;
20729;SDS011;10526;50.850;12.928;2023-05-07T10:32:30;8.50;;;3.63;;
20729;SDS011;10526;50.850;12.928;2023-05-07T10:37:17;6.30;;;2.92;;
20729;SDS011;10526;50.850;12.928;2023-05-07T10:41:42;5.70;;;3.00;;
20729;SDS011;10526;50.850;12.928;2023-05-07T10:46:11;9.13;;;4.15;;
20729;SDS011;10526;50.850;12.928;2023-05-07T10:50:51;8.63;;;4.45;;
20729;SDS011;10526;50.850;12.928;2023-05-07T11:00:45;9.30;;;4.28;;
20729;SDS011;10526;50.850;12.928;2023-05-07T11:05:22;6.95;;;3.63;;
20729;SDS011;10526;50.850;12.928;2023-05-07T11:10:01;8.32;;;3.75;;
20729;SDS011;10526;50.850;12.928;2023-05-07T11:14:50;8.27;;;4.00;;
20729;SDS011;10526;50.850;12.928;2023-05-07T11:24:40;9.57;;;4.78;;
20729;SDS011;10526;50.850;12.928;2023-05-07T11:29:14;10.98;;;5.18;;
20729;SDS011;10526;50.850;12.928;2023-05-07T11:33:46;9.75;;;4.53;;
20729;SDS011;10526;50.850;12.928;2023-05-07T11:38:12;9.32;;;4.82;;
20729;SDS011;10526;50.850;12.928;2023-05-07T11:42:36;10.13;;;4.88;;
20729;SDS011;10526;50.850;12.928;2023-05-07T11:47:00;9.35;;;4.63;;
20729;SDS011;10526;50.850;12.928;2023-05-07T11:51:24;8.15;;;4.32;;
20729;SDS011;10526;50.850;12.928;2023-05-07T11:55:52;9.18;;;5.10;;
20729;SDS011;10526;50.850;12.928;2023-05-07T12:00:16;8.85;;;4.50;;
20729;SDS011;10526;50.850;12.928;2023-05-07T12:04:38;7.60;;;4.15;;
20729;SDS011;10526;50.850;12.928;2023-05-07T12:09:01;8.48;;;4.45;;
20729;SDS011;10526;50.850;12.928;2023-05-07T12:13:24;8.27;;;4.28;;
20729;SDS011;10526;50.850;12.928;2023-05-07T12:17:47;9.32;;;4.93;;
20729;SDS011;10526;50.850;12.928;2023-05-07T12:22:10;8.70;;;4.47;;
20729;SDS011;10526;50.850;12.928;2023-05-07T12:26:36;8.68;;;4.47;;
20729;SDS011;10526;50.850;12.928;2023-05-07T12:31:01;10.05;;;5.07;;
20729;SDS011;10526;50.850;12.928;2023-05-07T12:35:31;9.90;;;5.28;;
20729;SDS011;10526;50.850;12.928;2023-05-07T12:40:04;10.65;;;5.43;;
20729;SDS011;10526;50.850;12.928;2023-05-07T12:44:32;11.25;;;5.38;;
20729;SDS011;10526;50.850;12.928;2023-05-07T12:48:55;10.00;;;5.28;;
20729;SDS011;10526;50.850;12.928;2023-05-07T12:53:19;9.00;;;5.00;;
20729;SDS011;10526;50.850;12.928;2023-05-07T12:57:47;10.32;;;5.35;;
20729;SDS011;10526;50.850;12.928;2023-05-07T13:02:11;11.13;;;5.50;;
20729;SDS011;10526;50.850;12.928;2023-05-07T13:06:35;10.95;;;5.18;;
20729;SDS011;10526;50.850;12.928;2023-05-07T13:10:57;12.15;;;5.80;;
20729;SDS011;10526;50.850;12.928;2023-05-07T13:15:24;9.77;;;4.85;;
20729;SDS011;10526;50.850;12.928;2023-05-07T13:19:48;9.90;;;5.03;;
20729;SDS011;10526;50.850;12.928;2023-05-07T13:24:10;9.25;;;4.78;;
20729;SDS011;10526;50.850;12.928;2023-05-07T13:28:33;9.30;;;4.97;;
20729;SDS011;10526;50.850;12.928;2023-05-07T13:32:55;10.32;;;5.45;;
20729;SDS011;10526;50.850;12.928;2023-05-07T13:37:20;8.85;;;4.78;;
20729;SDS011;10526;50.850;12.928;2023-05-07T13:47:46;8.23;;;4.50;;
20729;SDS011;10526;50.850;12.928;2023-05-07T13:52:08;12.55;;;5.05;;
20729;SDS011;10526;50.850;12.928;2023-05-07T13:56:31;9.90;;;5.18;;
20729;SDS011;10526;50.850;12.928;2023-05-07T14:00:54;10.60;;;5.20;;
20729;SDS011;10526;50.850;12.928;2023-05-07T14:05:16;10.60;;;5.00;;
20729;SDS011;10526;50.850;12.928;2023-05-07T14:09:39;9.80;;;4.20;;
20729;SDS011;10526;50.850;12.928;2023-05-07T14:14:01;7.80;;;4.20;;
20729;SDS011;10526;50.850;12.928;2023-05-07T14:18:23;22.95;;;12.48;;
20729;SDS011;10526;50.850;12.928;2023-05-07T14:22:45;9.80;;;4.97;;
20729;SDS011;10526;50.850;12.928;2023-05-07T14:33:40;12.60;;;5.68;;
20729;SDS011;10526;50.850;12.928;2023-05-07T14:38:02;9.45;;;4.68;;
20729;SDS011;10526;50.850;12.928;2023-05-07T14:42:24;12.73;;;5.88;;
20729;SDS011;10526;50.850;12.928;2023-05-07T14:46:47;10.27;;;5.30;;
20729;SDS011;10526;50.850;12.928;2023-05-07T14:51:09;10.98;;;5.20;;
20729;SDS011;10526;50.850;12.928;2023-05-07T14:55:32;9.30;;;4.80;;
20729;SDS011;10526;50.850;12.928;2023-05-07T14:59:56;8.18;;;4.53;;
20729;SDS011;10526;50.850;12.928;2023-05-07T15:04:18;11.07;;;5.18;;
20729;SDS011;10526;50.850;12.928;2023-05-07T15:08:40;8.40;;;4.72;;
20729;SDS011;10526;50.850;12.928;2023-05-07T15:13:02;10.38;;;5.20;;
20729;SDS011;10526;50.850;12.928;2023-05-07T15:17:25;8.95;;;4.90;;
20729;SDS011;10526;50.850;12.928;2023-05-07T15:21:47;10.18;;;5.82;;
20729;SDS011;10526;50.850;12.928;2023-05-07T15:26:09;10.98;;;5.55;;
20729;SDS011;10526;50.850;12.928;2023-05-07T15:30:32;10.98;;;5.60;;
20729;SDS011;10526;50.850;12.928;2023-05-07T15:34:55;10.10;;;5.43;;
20729;SDS011;10526;50.850;12.928;2023-05-07T15:39:17;11.43;;;5.78;;
20729;SDS011;10526;50.850;12.928;2023-05-07T15:43:43;10.10;;;5.25;;
20729;SDS011;10526;50.850;12.928;2023-05-07T15:48:11;11.52;;;6.20;;
20729;SDS011;10526;50.850;12.928;2023-05-07T15:52:33;11.93;;;6.38;;
20729;SDS011;10526;50.850;12.928;2023-05-07T15:56:55;10.57;;;6.00;;
20729;SDS011;10526;50.850;12.928;2023-05-07T16:01:17;11.15;;;5.97;;
20729;SDS011;10526;50.850;12.928;2023-05-07T16:05:42;11.60;;;6.05;;
20729;SDS011;10526;50.850;12.928;2023-05-07T16:10:04;12.15;;;6.25;;
20729;SDS011;10526;50.850;12.928;2023-05-07T16:14:28;11.82;;;6.25;;
20729;SDS011;10526;50.850;12.928;2023-05-07T16:18:50;11.25;;;5.88;;
20729;SDS011;10526;50.850;12.928;2023-05-07T16:23:12;10.55;;;5.82;;
20729;SDS011;10526;50.850;12.928;2023-05-07T16:27:34;11.50;;;6.43;;
20729;SDS011;10526;50.850;12.928;2023-05-07T16:31:56;10.32;;;5.78;;
20729;SDS011;10526;50.850;12.928;2023-05-07T16:36:19;11.00;;;6.07;;
20729;SDS011;10526;50.850;12.928;2023-05-07T16:40:41;13.23;;;6.35;;
20729;SDS011;10526;50.850;12.928;2023-05-07T16:45:03;11.65;;;6.10;;
20729;SDS011;10526;50.850;12.928;2023-05-07T16:49:26;10.90;;;5.95;;
20729;SDS011;10526;50.850;12.928;2023-05-07T16:53:49;10.65;;;5.93;;
20729;SDS011;10526;50.850;12.928;2023-05-07T16:58:12;10.25;;;5.68;;
20729;SDS011;10526;50.850;12.928;2023-05-07T17:02:35;9.10;;;4.63;;
20729;SDS011;10526;50.850;12.928;2023-05-07T17:06:57;10.07;;;5.00;;
20729;SDS011;10526;50.850;12.928;2023-05-07T17:11:20;10.30;;;5.40;;
20729;SDS011;10526;50.850;12.928;2023-05-07T17:15:42;10.05;;;5.20;;
20729;SDS011;10526;50.850;12.928;2023-05-07T17:20:07;10.30;;;5.10;;
20729;SDS011;10526;50.850;12.928;2023-05-07T17:24:30;9.32;;;4.85;;
20729;SDS011;10526;50.850;12.928;2023-05-07T17:28:52;11.15;;;5.60;;
20729;SDS011;10526;50.850;12.928;2023-05-07T17:33:15;10.10;;;4.88;;
20729;SDS011;10526;50.850;12.928;2023-05-07T17:37:42;10.88;;;5.70;;
20729;SDS011;10526;50.850;12.928;2023-05-07T17:42:12;10.32;;;5.20;;
20729;SDS011;10526;50.850;12.928;2023-05-07T17:46:34;11.82;;;6.30;;
20729;SDS011;10526;50.850;12.928;2023-05-07T17:51:00;11.35;;;6.43;;
20729;SDS011;10526;50.850;12.928;2023-05-07T17:55:23;10.50;;;5.80;;
20729;SDS011;10526;50.850;12.928;2023-05-07T17:59:46;12.05;;;5.70;;
20729;SDS011;10526;50.850;12.928;2023-05-07T18:04:08;11.35;;;6.47;;
20729;SDS011;10526;50.850;12.928;2023-05-07T18:08:30;12.38;;;6.00;;
20729;SDS011;10526;50.850;12.928;2023-05-07T18:12:55;13.48;;;6.45;;
20729;SDS011;10526;50.850;12.928;2023-05-07T18:17:17;12.55;;;6.55;;
20729;SDS011;10526;50.850;12.928;2023-05-07T18:21:39;12.77;;;6.68;;
20729;SDS011;10526;50.850;12.928;2023-05-07T18:26:01;12.80;;;6.90;;
20729;SDS011;10526;50.850;12.928;2023-05-07T18:30:26;13.02;;;7.05;;
20729;SDS011;10526;50.850;12.928;2023-05-07T18:34:48;16.52;;;7.05;;
20729;SDS011;10526;50.850;12.928;2023-05-07T18:39:11;15.10;;;7.60;;
20729;SDS011;10526;50.850;12.928;2023-05-07T18:43:33;14.10;;;7.18;;
20729;SDS011;10526;50.850;12.928;2023-05-07T18:47:55;13.98;;;7.63;;
20729;SDS011;10526;50.850;12.928;2023-05-07T18:52:17;13.73;;;7.72;;
20729;SDS011;10526;50.850;12.928;2023-05-07T18:56:42;15.07;;;8.40;;
20729;SDS011;10526;50.850;12.928;2023-05-07T19:01:04;14.05;;;7.75;;
20729;SDS011;10526;50.850;12.928;2023-05-07T19:05:29;14.77;;;8.52;;
20729;SDS011;10526;50.850;12.928;2023-05-07T19:09:51;15.35;;;8.65;;
20729;SDS011;10526;50.850;12.928;2023-05-07T19:14:25;14.57;;;8.65;;
20729;SDS011;10526;50.850;12.928;2023-05-07T19:18:47;14.68;;;8.63;;
20729;SDS011;10526;50.850;12.928;2023-05-07T19:23:10;14.55;;;8.82;;
20729;SDS011;10526;50.850;12.928;2023-05-07T19:27:32;14.88;;;9.52;;
20729;SDS011;10526;50.850;12.928;2023-05-07T19:31:54;15.68;;;9.52;;
20729;SDS011;10526;50.850;12.928;2023-05-07T19:36:17;14.98;;;9.32;;
20729;SDS011;10526;50.850;12.928;2023-05-07T19:40:39;16.08;;;9.80;;
20729;SDS011;10526;50.850;12.928;2023-05-07T19:45:01;15.75;;;9.35;;
20729;SDS011;10526;50.850;12.928;2023-05-07T19:49:25;15.75;;;9.25;;
20729;SDS011;10526;50.850;12.928;2023-05-07T19:53:47;15.63;;;9.88;;
20729;SDS011;10526;50.850;12.928;2023-05-07T19:58:09;17.25;;;10.63;;
20729;SDS011;10526;50.850;12.928;2023-05-07T20:02:31;16.70;;;10.55;;
20729;SDS011;10526;50.850;12.928;2023-05-07T20:06:53;16.63;;;9.90;;
20729;SDS011;10526;50.850;12.928;2023-05-07T20:11:17;17.33;;;10.65;;
20729;SDS011;10526;50.850;12.928;2023-05-07T20:15:40;20.38;;;10.88;;
20729;SDS011;10526;50.850;12.928;2023-05-07T20:20:02;17.10;;;11.07;;
20729;SDS011;10526;50.850;12.928;2023-05-07T20:24:25;17.42;;;10.30;;
20729;SDS011;10526;50.850;12.928;2023-05-07T20:28:47;21.28;;;10.18;;
20729;SDS011;10526;50.850;12.928;2023-05-07T20:33:09;17.88;;;11.48;;
20729;SDS011;10526;50.850;12.928;2023-05-07T20:37:33;18.17;;;10.45;;
20729;SDS011;10526;50.850;12.928;2023-05-07T20:41:56;18.67;;;11.38;;
20729;SDS011;10526;50.850;12.928;2023-05-07T20:46:19;19.33;;;11.63;;
20729;SDS011;10526;50.850;12.928;2023-05-07T20:50:43;18.77;;;11.45;;
20729;SDS011;10526;50.850;12.928;2023-05-07T20:55:05;17.58;;;11.30;;
20729;SDS011;10526;50.850;12.928;2023-05-07T20:59:28;18.05;;;11.13;;
20729;SDS011;10526;50.850;12.928;2023-05-07T21:03:50;17.75;;;11.45;;
20729;SDS011;10526;50.850;12.928;2023-05-07T21:08:14;18.05;;;11.48;;
20729;SDS011;10526;50.850;12.928;2023-05-07T21:12:36;23.50;;;13.75;;
20729;SDS011;10526;50.850;12.928;2023-05-07T21:16:59;18.48;;;13.13;;
20729;SDS011;10526;50.850;12.928;2023-05-07T21:21:22;20.58;;;13.98;;
20729;SDS011;10526;50.850;12.928;2023-05-07T21:25:44;21.08;;;13.85;;
20729;SDS011;10526;50.850;12.928;2023-05-07T21:30:07;21.25;;;14.15;;
20729;SDS011;10526;50.850;12.928;2023-05-07T21:34:31;20.83;;;13.50;;
20729;SDS011;10526;50.850;12.928;2023-05-07T21:38:53;22.38;;;14.25;;
20729;SDS011;10526;50.850;12.928;2023-05-07T21:43:16;22.33;;;14.48;;
20729;SDS011;10526;50.850;12.928;2023-05-07T21:47:37;23.25;;;14.95;;
20729;SDS011;10526;50.850;12.928;2023-05-07T21:52:00;21.77;;;14.10;;
20729;SDS011;10526;50.850;12.928;2023-05-07T21:56:22;23.42;;;14.68;;
20729;SDS011;10526;50.850;12.928;2023-05-07T22:06:39;23.10;;;13.57;;
20729;SDS011;10526;50.850;12.928;2023-05-07T22:11:01;24.80;;;15.55;;
20729;SDS011;10526;50.850;12.928;2023-05-07T22:15:23;23.23;;;15.68;;
20729;SDS011;10526;50.850;12.928;2023-05-07T22:19:45;23.20;;;15.93;;
20729;SDS011;10526;50.850;12.928;2023-05-07T22:24:08;23.77;;;15.43;;
20729;SDS011;10526;50.850;12.928;2023-05-07T22:28:30;29.10;;;18.85;;
20729;SDS011;10526;50.850;12.928;2023-05-07T22:32:52;25.60;;;16.73;;
20729;SDS011;10526;50.850;12.928;2023-05-07T22:37:14;24.17;;;15.77;;
20729;SDS011;10526;50.850;12.928;2023-05-07T22:41:36;22.52;;;16.27;;
20729;SDS011;10526;50.850;12.928;2023-05-07T22:46:01;22.80;;;13.52;;
20729;SDS011;10526;50.850;12.928;2023-05-07T22:50:23;24.95;;;14.80;;
20729;SDS011;10526;50.850;12.928;2023-05-07T22:54:45;18.38;;;11.52;;
20729;SDS011;10526;50.850;12.928;2023-05-07T22:59:08;16.17;;;10.40;;
20729;SDS011;10526;50.850;12.928;2023-05-07T23:03:30;18.80;;;9.50;;
20729;SDS011;10526;50.850;12.928;2023-05-07T23:07:53;13.93;;;8.23;;
20729;SDS011;10526;50.850;12.928;2023-05-07T23:12:15;14.73;;;8.18;;
20729;SDS011;10526;50.850;12.928;2023-05-07T23:16:37;19.40;;;8.55;;
20729;SDS011;10526;50.850;12.928;2023-05-07T23:21:00;17.05;;;7.90;;
20729;SDS011;10526;50.850;12.928;2023-05-07T23:25:22;13.93;;;7.90;;
20729;SDS011;10526;50.850;12.928;2023-05-07T23:29:44;12.90;;;7.25;;
20729;SDS011;10526;50.850;12.928;2023-05-07T23:34:07;13.90;;;6.95;;
20729;SDS011;10526;50.850;12.928;2023-05-07T23:38:29;18.00;;;7.57;;
20729;SDS011;10526;50.850;12.928;2023-05-07T23:42:51;13.35;;;6.82;;
20729;SDS011;10526;50.850;12.928;2023-05-07T23:47:13;13.55;;;6.80;;
20729;SDS011;10526;50.850;12.928;2023-05-07T23:51:36;14.13;;;7.30;;
20729;SDS011;10526;50.850;12.928;2023-05-07T23:55:58;13.82;;;7.78;;
